sensor_id;sensor_type;location;lat;lon;timestamp;P1;durP1;ratioP1;P2;durP2;ratioP2
3597;SDS011;1813;52.016;8.714;2022-08-19T00:01:43;16.80;;;9.60;;
3597;SDS011;1813;52.016;8.714;2022-08-19T00:04:16;12.57;;;9.60;;
3597;SDS011;1813;52.016;8.714;2022-08-19T00:06:50;16.10;;;9.30;;
3597;SDS011;1813;52.016;8.714;2022-08-19T00:09:24;13.70;;;8.80;;
3597;SDS011;1813;52.016;8.714;2022-08-19T00:11:57;13.87;;;9.47;;
3597;SDS011;1813;52.016;8.714;2022-08-19T00:14:30;12.53;;;9.23;;
3597;SDS011;1813;52.016;8.714;2022-08-19T00:17:02;13.47;;;9.30;;
3597;SDS011;1813;52.016;8.714;2022-08-19T00:19:35;13.63;;;8.90;;
3597;SDS011;1813;52.016;8.714;2022-08-19T00:22:07;14.10;;;9.53;;
3597;SDS011;1813;52.016;8.714;2022-08-19T00:24:41;13.27;;;9.30;;
3597;SDS011;1813;52.016;8.714;2022-08-19T00:27:13;17.20;;;10.00;;
3597;SDS011;1813;52.016;8.714;2022-08-19T00:29:46;13.03;;;9.10;;
3597;SDS011;1813;52.016;8.714;2022-08-19T00:32:18;12.77;;;9.03;;
3597;SDS011;1813;52.016;8.714;2022-08-19T00:34:50;16.53;;;9.87;;
3597;SDS011;1813;52.016;8.714;2022-08-19T00:37:24;17.00;;;9.90;;
3597;SDS011;1813;52.016;8.714;2022-08-19T00:39:58;18.17;;;9.97;;
3597;SDS011;1813;52.016;8.714;2022-08-19T00:42:30;15.93;;;9.90;;
3597;SDS011;1813;52.016;8.714;2022-08-19T00:45:02;14.57;;;9.67;;
3597;SDS011;1813;52.016;8.714;2022-08-19T00:47:40;14.97;;;10.00;;
3597;SDS011;1813;52.016;8.714;2022-08-19T00:50:12;13.03;;;9.83;;
3597;SDS011;1813;52.016;8.714;2022-08-19T00:52:46;14.67;;;11.03;;
3597;SDS011;1813;52.016;8.714;2022-08-19T00:55:23;19.43;;;11.13;;
3597;SDS011;1813;52.016;8.714;2022-08-19T00:57:59;15.97;;;10.63;;
3597;SDS011;1813;52.016;8.714;2022-08-19T01:00:35;15.83;;;10.93;;
3597;SDS011;1813;52.016;8.714;2022-08-19T01:03:08;16.93;;;11.50;;
3597;SDS011;1813;52.016;8.714;2022-08-19T01:05:43;20.60;;;11.07;;
3597;SDS011;1813;52.016;8.714;2022-08-19T01:08:16;14.17;;;11.27;;
3597;SDS011;1813;52.016;8.714;2022-08-19T01:10:52;16.73;;;10.87;;
3597;SDS011;1813;52.016;8.714;2022-08-19T01:13:26;18.70;;;11.27;;
3597;SDS011;1813;52.016;8.714;2022-08-19T01:16:03;16.70;;;10.73;;
3597;SDS011;1813;52.016;8.714;2022-08-19T01:18:40;20.47;;;11.30;;
3597;SDS011;1813;52.016;8.714;2022-08-19T01:21:15;16.13;;;11.23;;
3597;SDS011;1813;52.016;8.714;2022-08-19T01:23:53;18.33;;;11.97;;
3597;SDS011;1813;52.016;8.714;2022-08-19T01:26:25;18.20;;;12.43;;
3597;SDS011;1813;52.016;8.714;2022-08-19T01:28:59;19.47;;;12.30;;
3597;SDS011;1813;52.016;8.714;2022-08-19T01:31:31;18.87;;;12.10;;
3597;SDS011;1813;52.016;8.714;2022-08-19T01:34:03;18.57;;;12.40;;
3597;SDS011;1813;52.016;8.714;2022-08-19T01:36:36;19.90;;;12.13;;
3597;SDS011;1813;52.016;8.714;2022-08-19T01:39:15;18.67;;;12.40;;
3597;SDS011;1813;52.016;8.714;2022-08-19T01:41:49;20.00;;;12.97;;
3597;SDS011;1813;52.016;8.714;2022-08-19T01:44:22;18.93;;;14.60;;
3597;SDS011;1813;52.016;8.714;2022-08-19T01:46:55;25.73;;;14.53;;
3597;SDS011;1813;52.016;8.714;2022-08-19T01:49:27;21.20;;;13.83;;
3597;SDS011;1813;52.016;8.714;2022-08-19T01:51:59;23.93;;;15.33;;
3597;SDS011;1813;52.016;8.714;2022-08-19T01:54:33;23.50;;;14.93;;
3597;SDS011;1813;52.016;8.714;2022-08-19T01:57:06;26.30;;;14.50;;
3597;SDS011;1813;52.016;8.714;2022-08-19T01:59:42;23.00;;;16.03;;
3597;SDS011;1813;52.016;8.714;2022-08-19T02:02:16;23.50;;;15.33;;
3597;SDS011;1813;52.016;8.714;2022-08-19T02:04:47;23.10;;;15.50;;
3597;SDS011;1813;52.016;8.714;2022-08-19T02:07:20;27.47;;;14.90;;
3597;SDS011;1813;52.016;8.714;2022-08-19T02:09:53;28.37;;;15.07;;
3597;SDS011;1813;52.016;8.714;2022-08-19T02:12:26;21.13;;;15.50;;
3597;SDS011;1813;52.016;8.714;2022-08-19T02:14:58;24.80;;;15.87;;
3597;SDS011;1813;52.016;8.714;2022-08-19T02:17:31;26.50;;;16.50;;
3597;SDS011;1813;52.016;8.714;2022-08-19T02:20:03;21.40;;;15.43;;
3597;SDS011;1813;52.016;8.714;2022-08-19T02:22:36;23.50;;;16.47;;
3597;SDS011;1813;52.016;8.714;2022-08-19T02:25:12;22.30;;;15.07;;
3597;SDS011;1813;52.016;8.714;2022-08-19T02:27:45;26.93;;;16.70;;
3597;SDS011;1813;52.016;8.714;2022-08-19T02:30:17;24.90;;;16.70;;
3597;SDS011;1813;52.016;8.714;2022-08-19T02:32:49;22.80;;;15.77;;
3597;SDS011;1813;52.016;8.714;2022-08-19T02:35:21;21.03;;;15.77;;
3597;SDS011;1813;52.016;8.714;2022-08-19T02:37:53;18.87;;;15.23;;
3597;SDS011;1813;52.016;8.714;2022-08-19T02:40:48;24.90;;;16.70;;
3597;SDS011;1813;52.016;8.714;2022-08-19T02:43:22;23.10;;;15.80;;
3597;SDS011;1813;52.016;8.714;2022-08-19T02:45:56;26.97;;;16.33;;
3597;SDS011;1813;52.016;8.714;2022-08-19T02:48:27;27.27;;;16.80;;
3597;SDS011;1813;52.016;8.714;2022-08-19T02:51:00;23.37;;;16.30;;
3597;SDS011;1813;52.016;8.714;2022-08-19T02:53:32;25.70;;;18.30;;
3597;SDS011;1813;52.016;8.714;2022-08-19T02:56:07;27.67;;;18.67;;
3597;SDS011;1813;52.016;8.714;2022-08-19T02:58:39;29.87;;;19.53;;
3597;SDS011;1813;52.016;8.714;2022-08-19T03:01:18;27.93;;;17.27;;
3597;SDS011;1813;52.016;8.714;2022-08-19T03:03:51;28.30;;;17.80;;
3597;SDS011;1813;52.016;8.714;2022-08-19T03:06:23;25.80;;;17.27;;
3597;SDS011;1813;52.016;8.714;2022-08-19T03:08:55;22.90;;;17.10;;
3597;SDS011;1813;52.016;8.714;2022-08-19T03:11:30;21.93;;;16.87;;
3597;SDS011;1813;52.016;8.714;2022-08-19T03:14:04;24.93;;;17.23;;
3597;SDS011;1813;52.016;8.714;2022-08-19T03:16:40;27.00;;;17.93;;
3597;SDS011;1813;52.016;8.714;2022-08-19T03:19:15;27.27;;;18.53;;
3597;SDS011;1813;52.016;8.714;2022-08-19T03:21:48;30.50;;;18.70;;
3597;SDS011;1813;52.016;8.714;2022-08-19T03:24:21;28.20;;;18.60;;
3597;SDS011;1813;52.016;8.714;2022-08-19T03:26:54;31.97;;;20.53;;
3597;SDS011;1813;52.016;8.714;2022-08-19T03:29:28;30.27;;;20.00;;
3597;SDS011;1813;52.016;8.714;2022-08-19T03:32:03;29.77;;;19.43;;
3597;SDS011;1813;52.016;8.714;2022-08-19T03:34:36;33.70;;;21.57;;
3597;SDS011;1813;52.016;8.714;2022-08-19T03:37:09;33.23;;;21.87;;
3597;SDS011;1813;52.016;8.714;2022-08-19T03:39:43;35.20;;;23.33;;
3597;SDS011;1813;52.016;8.714;2022-08-19T03:42:16;39.60;;;23.87;;
3597;SDS011;1813;52.016;8.714;2022-08-19T03:44:48;38.47;;;22.73;;
3597;SDS011;1813;52.016;8.714;2022-08-19T03:47:20;35.57;;;23.43;;
3597;SDS011;1813;52.016;8.714;2022-08-19T03:49:51;33.87;;;21.73;;
3597;SDS011;1813;52.016;8.714;2022-08-19T03:52:23;35.30;;;23.40;;
3597;SDS011;1813;52.016;8.714;2022-08-19T03:54:55;34.13;;;22.13;;
3597;SDS011;1813;52.016;8.714;2022-08-19T03:57:28;34.40;;;21.97;;
3597;SDS011;1813;52.016;8.714;2022-08-19T04:00:00;36.60;;;23.10;;
3597;SDS011;1813;52.016;8.714;2022-08-19T04:02:35;37.67;;;23.77;;
3597;SDS011;1813;52.016;8.714;2022-08-19T04:05:07;37.47;;;22.93;;
3597;SDS011;1813;52.016;8.714;2022-08-19T04:07:39;34.77;;;21.37;;
3597;SDS011;1813;52.016;8.714;2022-08-19T04:10:11;34.57;;;22.23;;
3597;SDS011;1813;52.016;8.714;2022-08-19T04:12:44;34.17;;;23.40;;
3597;SDS011;1813;52.016;8.714;2022-08-19T04:15:16;37.13;;;21.80;;
3597;SDS011;1813;52.016;8.714;2022-08-19T04:17:49;40.13;;;22.63;;
3597;SDS011;1813;52.016;8.714;2022-08-19T04:20:21;37.03;;;22.47;;
3597;SDS011;1813;52.016;8.714;2022-08-19T04:22:52;36.73;;;22.43;;
3597;SDS011;1813;52.016;8.714;2022-08-19T04:25:24;35.13;;;23.37;;
3597;SDS011;1813;52.016;8.714;2022-08-19T04:27:57;34.90;;;21.60;;
3597;SDS011;1813;52.016;8.714;2022-08-19T04:30:29;34.83;;;21.40;;
3597;SDS011;1813;52.016;8.714;2022-08-19T04:33:01;32.80;;;21.20;;
3597;SDS011;1813;52.016;8.714;2022-08-19T04:35:35;34.73;;;21.07;;
3597;SDS011;1813;52.016;8.714;2022-08-19T04:38:08;31.23;;;21.17;;
3597;SDS011;1813;52.016;8.714;2022-08-19T04:40:40;33.77;;;21.50;;
3597;SDS011;1813;52.016;8.714;2022-08-19T04:43:32;33.30;;;21.80;;
3597;SDS011;1813;52.016;8.714;2022-08-19T04:46:05;39.77;;;23.10;;
3597;SDS011;1813;52.016;8.714;2022-08-19T04:48:38;35.40;;;23.07;;
3597;SDS011;1813;52.016;8.714;2022-08-19T04:51:11;34.77;;;21.67;;
3597;SDS011;1813;52.016;8.714;2022-08-19T04:53:43;33.20;;;20.83;;
3597;SDS011;1813;52.016;8.714;2022-08-19T04:56:17;34.13;;;20.57;;
3597;SDS011;1813;52.016;8.714;2022-08-19T04:58:52;34.50;;;21.07;;
3597;SDS011;1813;52.016;8.714;2022-08-19T05:01:26;32.50;;;21.23;;
3597;SDS011;1813;52.016;8.714;2022-08-19T05:04:00;29.93;;;21.03;;
3597;SDS011;1813;52.016;8.714;2022-08-19T05:06:34;30.27;;;20.20;;
3597;SDS011;1813;52.016;8.714;2022-08-19T05:09:07;34.43;;;19.73;;
3597;SDS011;1813;52.016;8.714;2022-08-19T05:11:39;33.53;;;20.07;;
3597;SDS011;1813;52.016;8.714;2022-08-19T05:14:12;33.53;;;21.10;;
3597;SDS011;1813;52.016;8.714;2022-08-19T05:16:44;28.67;;;20.10;;
3597;SDS011;1813;52.016;8.714;2022-08-19T05:19:16;34.53;;;20.10;;
3597;SDS011;1813;52.016;8.714;2022-08-19T05:22:05;38.77;;;22.43;;
3597;SDS011;1813;52.016;8.714;2022-08-19T05:24:54;29.57;;;19.73;;
3597;SDS011;1813;52.016;8.714;2022-08-19T05:27:26;29.93;;;20.20;;
3597;SDS011;1813;52.016;8.714;2022-08-19T05:29:59;30.63;;;20.00;;
3597;SDS011;1813;52.016;8.714;2022-08-19T05:32:31;29.43;;;19.93;;
3597;SDS011;1813;52.016;8.714;2022-08-19T05:35:03;35.97;;;20.60;;
3597;SDS011;1813;52.016;8.714;2022-08-19T05:37:36;27.73;;;20.63;;
3597;SDS011;1813;52.016;8.714;2022-08-19T05:40:10;31.33;;;19.60;;
3597;SDS011;1813;52.016;8.714;2022-08-19T05:42:42;29.83;;;19.53;;
3597;SDS011;1813;52.016;8.714;2022-08-19T05:45:15;27.43;;;18.60;;
3597;SDS011;1813;52.016;8.714;2022-08-19T05:47:47;23.93;;;17.30;;
3597;SDS011;1813;52.016;8.714;2022-08-19T05:50:19;24.90;;;17.73;;
3597;SDS011;1813;52.016;8.714;2022-08-19T05:52:51;30.43;;;17.20;;
3597;SDS011;1813;52.016;8.714;2022-08-19T05:55:23;28.60;;;17.43;;
3597;SDS011;1813;52.016;8.714;2022-08-19T05:57:55;24.33;;;17.93;;
3597;SDS011;1813;52.016;8.714;2022-08-19T06:00:28;25.43;;;17.60;;
3597;SDS011;1813;52.016;8.714;2022-08-19T06:03:01;24.57;;;16.90;;
3597;SDS011;1813;52.016;8.714;2022-08-19T06:05:33;24.23;;;16.50;;
3597;SDS011;1813;52.016;8.714;2022-08-19T06:08:05;23.47;;;15.67;;
3597;SDS011;1813;52.016;8.714;2022-08-19T06:10:37;17.10;;;13.27;;
3597;SDS011;1813;52.016;8.714;2022-08-19T06:13:09;19.13;;;14.17;;
3597;SDS011;1813;52.016;8.714;2022-08-19T06:15:42;17.80;;;14.17;;
3597;SDS011;1813;52.016;8.714;2022-08-19T06:18:16;18.80;;;12.93;;
3597;SDS011;1813;52.016;8.714;2022-08-19T06:20:48;18.70;;;11.67;;
3597;SDS011;1813;52.016;8.714;2022-08-19T06:23:20;12.40;;;10.90;;
3597;SDS011;1813;52.016;8.714;2022-08-19T06:25:52;13.97;;;10.53;;
3597;SDS011;1813;52.016;8.714;2022-08-19T06:28:23;12.70;;;10.10;;
3597;SDS011;1813;52.016;8.714;2022-08-19T06:30:57;20.90;;;11.40;;
3597;SDS011;1813;52.016;8.714;2022-08-19T06:33:28;16.03;;;10.93;;
3597;SDS011;1813;52.016;8.714;2022-08-19T06:36:00;15.63;;;10.60;;
3597;SDS011;1813;52.016;8.714;2022-08-19T06:38:32;19.40;;;10.53;;
3597;SDS011;1813;52.016;8.714;2022-08-19T06:41:04;12.63;;;9.60;;
3597;SDS011;1813;52.016;8.714;2022-08-19T06:43:37;13.07;;;8.77;;
3597;SDS011;1813;52.016;8.714;2022-08-19T06:46:11;14.07;;;9.37;;
3597;SDS011;1813;52.016;8.714;2022-08-19T06:48:44;11.30;;;10.00;;
3597;SDS011;1813;52.016;8.714;2022-08-19T06:51:17;16.87;;;11.07;;
3597;SDS011;1813;52.016;8.714;2022-08-19T06:53:50;16.93;;;10.63;;
3597;SDS011;1813;52.016;8.714;2022-08-19T06:56:25;19.40;;;10.37;;
3597;SDS011;1813;52.016;8.714;2022-08-19T06:59:02;15.40;;;9.77;;
3597;SDS011;1813;52.016;8.714;2022-08-19T07:01:37;12.93;;;9.53;;
3597;SDS011;1813;52.016;8.714;2022-08-19T07:04:10;11.00;;;8.83;;
3597;SDS011;1813;52.016;8.714;2022-08-19T07:06:43;17.83;;;10.10;;
3597;SDS011;1813;52.016;8.714;2022-08-19T07:09:15;12.67;;;8.73;;
3597;SDS011;1813;52.016;8.714;2022-08-19T07:11:50;17.97;;;9.27;;
3597;SDS011;1813;52.016;8.714;2022-08-19T07:14:24;13.23;;;9.50;;
3597;SDS011;1813;52.016;8.714;2022-08-19T07:16:59;16.77;;;9.30;;
3597;SDS011;1813;52.016;8.714;2022-08-19T07:19:31;11.50;;;8.47;;
3597;SDS011;1813;52.016;8.714;2022-08-19T07:22:03;16.33;;;8.80;;
3597;SDS011;1813;52.016;8.714;2022-08-19T07:24:37;29.53;;;8.20;;
3597;SDS011;1813;52.016;8.714;2022-08-19T07:27:09;11.23;;;7.07;;
3597;SDS011;1813;52.016;8.714;2022-08-19T07:29:41;11.50;;;7.40;;
3597;SDS011;1813;52.016;8.714;2022-08-19T07:32:14;7.83;;;7.00;;
3597;SDS011;1813;52.016;8.714;2022-08-19T07:34:46;8.77;;;7.40;;
3597;SDS011;1813;52.016;8.714;2022-08-19T07:37:18;9.60;;;6.10;;
3597;SDS011;1813;52.016;8.714;2022-08-19T07:39:49;11.33;;;6.30;;
3597;SDS011;1813;52.016;8.714;2022-08-19T07:42:21;8.10;;;6.70;;
3597;SDS011;1813;52.016;8.714;2022-08-19T07:44:53;8.53;;;6.90;;
3597;SDS011;1813;52.016;8.714;2022-08-19T07:47:26;9.63;;;6.70;;
3597;SDS011;1813;52.016;8.714;2022-08-19T07:49:58;8.37;;;6.30;;
3597;SDS011;1813;52.016;8.714;2022-08-19T07:52:31;8.93;;;6.40;;
3597;SDS011;1813;52.016;8.714;2022-08-19T07:55:03;12.40;;;5.90;;
3597;SDS011;1813;52.016;8.714;2022-08-19T07:57:35;16.70;;;6.47;;
3597;SDS011;1813;52.016;8.714;2022-08-19T08:00:09;8.90;;;7.60;;
3597;SDS011;1813;52.016;8.714;2022-08-19T08:02:43;8.90;;;7.37;;
3597;SDS011;1813;52.016;8.714;2022-08-19T08:05:15;8.40;;;6.40;;
3597;SDS011;1813;52.016;8.714;2022-08-19T08:08:04;7.57;;;6.80;;
3597;SDS011;1813;52.016;8.714;2022-08-19T08:10:53;13.30;;;7.10;;
3597;SDS011;1813;52.016;8.714;2022-08-19T08:13:26;8.73;;;6.93;;
3597;SDS011;1813;52.016;8.714;2022-08-19T08:15:59;7.90;;;5.90;;
3597;SDS011;1813;52.016;8.714;2022-08-19T08:18:32;14.33;;;6.20;;
3597;SDS011;1813;52.016;8.714;2022-08-19T08:21:11;9.70;;;6.00;;
3597;SDS011;1813;52.016;8.714;2022-08-19T08:23:43;7.17;;;6.43;;
3597;SDS011;1813;52.016;8.714;2022-08-19T08:26:15;7.03;;;5.90;;
3597;SDS011;1813;52.016;8.714;2022-08-19T08:28:47;9.43;;;6.47;;
3597;SDS011;1813;52.016;8.714;2022-08-19T08:31:19;22.00;;;6.20;;
3597;SDS011;1813;52.016;8.714;2022-08-19T08:33:53;15.30;;;7.00;;
3597;SDS011;1813;52.016;8.714;2022-08-19T08:36:24;17.03;;;7.10;;
3597;SDS011;1813;52.016;8.714;2022-08-19T08:38:57;10.47;;;7.53;;
3597;SDS011;1813;52.016;8.714;2022-08-19T08:41:31;16.43;;;6.57;;
3597;SDS011;1813;52.016;8.714;2022-08-19T08:44:11;10.90;;;6.80;;
3597;SDS011;1813;52.016;8.714;2022-08-19T08:46:49;11.07;;;7.07;;
3597;SDS011;1813;52.016;8.714;2022-08-19T08:49:33;12.80;;;5.97;;
3597;SDS011;1813;52.016;8.714;2022-08-19T08:52:21;11.50;;;5.60;;
3597;SDS011;1813;52.016;8.714;2022-08-19T08:54:57;13.23;;;5.30;;
3597;SDS011;1813;52.016;8.714;2022-08-19T08:57:35;6.93;;;5.23;;
3597;SDS011;1813;52.016;8.714;2022-08-19T09:00:12;11.53;;;5.00;;
3597;SDS011;1813;52.016;8.714;2022-08-19T09:02:48;12.87;;;5.17;;
3597;SDS011;1813;52.016;8.714;2022-08-19T09:05:21;7.67;;;4.83;;
3597;SDS011;1813;52.016;8.714;2022-08-19T09:08:02;5.53;;;4.73;;
3597;SDS011;1813;52.016;8.714;2022-08-19T09:10:42;12.80;;;5.00;;
3597;SDS011;1813;52.016;8.714;2022-08-19T09:13:21;6.53;;;4.30;;
3597;SDS011;1813;52.016;8.714;2022-08-19T09:16:02;22.77;;;3.83;;
3597;SDS011;1813;52.016;8.714;2022-08-19T09:18:41;4.37;;;3.90;;
3597;SDS011;1813;52.016;8.714;2022-08-19T09:21:15;4.13;;;3.83;;
3597;SDS011;1813;52.016;8.714;2022-08-19T09:23:47;5.63;;;4.10;;
3597;SDS011;1813;52.016;8.714;2022-08-19T09:26:20;8.53;;;4.90;;
3597;SDS011;1813;52.016;8.714;2022-08-19T09:28:53;7.30;;;5.10;;
3597;SDS011;1813;52.016;8.714;2022-08-19T09:31:27;5.70;;;4.63;;
3597;SDS011;1813;52.016;8.714;2022-08-19T09:34:00;4.43;;;4.07;;
3597;SDS011;1813;52.016;8.714;2022-08-19T09:36:36;5.37;;;3.50;;
3597;SDS011;1813;52.016;8.714;2022-08-19T09:39:09;3.80;;;3.50;;
3597;SDS011;1813;52.016;8.714;2022-08-19T09:41:41;5.87;;;3.87;;
3597;SDS011;1813;52.016;8.714;2022-08-19T09:44:13;4.07;;;3.10;;
3597;SDS011;1813;52.016;8.714;2022-08-19T09:46:45;3.67;;;3.47;;
3597;SDS011;1813;52.016;8.714;2022-08-19T09:49:18;8.53;;;3.80;;
3597;SDS011;1813;52.016;8.714;2022-08-19T09:51:54;4.97;;;3.20;;
3597;SDS011;1813;52.016;8.714;2022-08-19T09:54:26;4.97;;;3.07;;
3597;SDS011;1813;52.016;8.714;2022-08-19T09:56:59;3.33;;;3.13;;
3597;SDS011;1813;52.016;8.714;2022-08-19T09:59:31;16.33;;;3.07;;
3597;SDS011;1813;52.016;8.714;2022-08-19T10:02:03;3.80;;;2.90;;
3597;SDS011;1813;52.016;8.714;2022-08-19T10:04:35;3.23;;;3.03;;
3597;SDS011;1813;52.016;8.714;2022-08-19T10:07:26;3.30;;;3.10;;
3597;SDS011;1813;52.016;8.714;2022-08-19T10:10:00;4.90;;;3.30;;
3597;SDS011;1813;52.016;8.714;2022-08-19T10:12:32;10.33;;;3.20;;
3597;SDS011;1813;52.016;8.714;2022-08-19T10:15:04;7.60;;;2.67;;
3597;SDS011;1813;52.016;8.714;2022-08-19T10:17:37;4.53;;;3.30;;
3597;SDS011;1813;52.016;8.714;2022-08-19T10:20:09;3.40;;;3.10;;
3597;SDS011;1813;52.016;8.714;2022-08-19T10:22:43;3.83;;;3.20;;
3597;SDS011;1813;52.016;8.714;2022-08-19T10:25:15;3.30;;;3.10;;
3597;SDS011;1813;52.016;8.714;2022-08-19T10:27:47;5.33;;;3.50;;
3597;SDS011;1813;52.016;8.714;2022-08-19T10:30:20;7.73;;;3.90;;
3597;SDS011;1813;52.016;8.714;2022-08-19T10:32:52;4.33;;;2.93;;
3597;SDS011;1813;52.016;8.714;2022-08-19T10:35:24;4.70;;;2.97;;
3597;SDS011;1813;52.016;8.714;2022-08-19T10:38:00;4.10;;;3.20;;
3597;SDS011;1813;52.016;8.714;2022-08-19T10:40:33;10.77;;;4.30;;
3597;SDS011;1813;52.016;8.714;2022-08-19T10:43:05;3.70;;;3.40;;
3597;SDS011;1813;52.016;8.714;2022-08-19T10:45:37;2.87;;;2.67;;
3597;SDS011;1813;52.016;8.714;2022-08-19T10:48:08;5.30;;;2.63;;
3597;SDS011;1813;52.016;8.714;2022-08-19T10:50:40;4.90;;;2.80;;
3597;SDS011;1813;52.016;8.714;2022-08-19T10:53:31;3.07;;;2.70;;
3597;SDS011;1813;52.016;8.714;2022-08-19T10:56:03;2.80;;;2.70;;
3597;SDS011;1813;52.016;8.714;2022-08-19T10:58:52;5.30;;;2.67;;
3597;SDS011;1813;52.016;8.714;2022-08-19T11:01:24;8.20;;;2.47;;
3597;SDS011;1813;52.016;8.714;2022-08-19T11:03:57;6.07;;;2.73;;
3597;SDS011;1813;52.016;8.714;2022-08-19T11:06:29;3.60;;;3.10;;
3597;SDS011;1813;52.016;8.714;2022-08-19T11:09:04;7.53;;;2.80;;
3597;SDS011;1813;52.016;8.714;2022-08-19T11:11:36;2.80;;;2.60;;
3597;SDS011;1813;52.016;8.714;2022-08-19T11:14:11;3.50;;;3.20;;
3597;SDS011;1813;52.016;8.714;2022-08-19T11:16:45;3.20;;;3.00;;
3597;SDS011;1813;52.016;8.714;2022-08-19T11:19:18;3.00;;;2.70;;
3597;SDS011;1813;52.016;8.714;2022-08-19T11:21:51;3.50;;;3.20;;
3597;SDS011;1813;52.016;8.714;2022-08-19T11:24:26;4.67;;;3.47;;
3597;SDS011;1813;52.016;8.714;2022-08-19T11:27:00;5.63;;;2.90;;
3597;SDS011;1813;52.016;8.714;2022-08-19T11:29:35;3.17;;;2.30;;
3597;SDS011;1813;52.016;8.714;2022-08-19T11:32:09;3.60;;;2.67;;
3597;SDS011;1813;52.016;8.714;2022-08-19T11:34:43;5.20;;;2.80;;
3597;SDS011;1813;52.016;8.714;2022-08-19T11:37:14;2.80;;;2.60;;
3597;SDS011;1813;52.016;8.714;2022-08-19T11:39:47;2.47;;;2.30;;
3597;SDS011;1813;52.016;8.714;2022-08-19T11:42:19;4.13;;;2.10;;
3597;SDS011;1813;52.016;8.714;2022-08-19T11:45:09;2.17;;;1.97;;
3597;SDS011;1813;52.016;8.714;2022-08-19T11:47:41;2.40;;;2.20;;
3597;SDS011;1813;52.016;8.714;2022-08-19T11:50:14;3.47;;;2.40;;
3597;SDS011;1813;52.016;8.714;2022-08-19T11:52:46;6.40;;;2.40;;
3597;SDS011;1813;52.016;8.714;2022-08-19T11:55:21;2.40;;;2.30;;
3597;SDS011;1813;52.016;8.714;2022-08-19T11:57:52;2.33;;;2.20;;
3597;SDS011;1813;52.016;8.714;2022-08-19T12:00:24;3.20;;;3.00;;
3597;SDS011;1813;52.016;8.714;2022-08-19T12:02:56;8.60;;;5.50;;
3597;SDS011;1813;52.016;8.714;2022-08-19T12:05:28;2.70;;;2.60;;
3597;SDS011;1813;52.016;8.714;2022-08-19T12:08:00;2.43;;;2.33;;
3597;SDS011;1813;52.016;8.714;2022-08-19T12:10:34;2.60;;;2.40;;
3597;SDS011;1813;52.016;8.714;2022-08-19T12:13:06;3.43;;;2.50;;
3597;SDS011;1813;52.016;8.714;2022-08-19T12:15:38;2.13;;;2.00;;
3597;SDS011;1813;52.016;8.714;2022-08-19T12:18:11;3.47;;;2.10;;
3597;SDS011;1813;52.016;8.714;2022-08-19T12:20:44;5.80;;;2.13;;
3597;SDS011;1813;52.016;8.714;2022-08-19T12:23:17;2.50;;;2.30;;
3597;SDS011;1813;52.016;8.714;2022-08-19T12:25:50;3.57;;;2.37;;
3597;SDS011;1813;52.016;8.714;2022-08-19T12:28:23;4.10;;;2.40;;
3597;SDS011;1813;52.016;8.714;2022-08-19T12:30:56;2.83;;;2.63;;
3597;SDS011;1813;52.016;8.714;2022-08-19T12:33:28;4.93;;;4.50;;
3597;SDS011;1813;52.016;8.714;2022-08-19T12:36:02;2.37;;;2.27;;
3597;SDS011;1813;52.016;8.714;2022-08-19T12:38:37;2.20;;;2.10;;
3597;SDS011;1813;52.016;8.714;2022-08-19T12:41:12;2.80;;;2.53;;
3597;SDS011;1813;52.016;8.714;2022-08-19T12:43:45;4.10;;;2.27;;
3597;SDS011;1813;52.016;8.714;2022-08-19T12:46:19;2.87;;;2.17;;
3597;SDS011;1813;52.016;8.714;2022-08-19T12:48:51;3.03;;;2.50;;
3597;SDS011;1813;52.016;8.714;2022-08-19T12:51:24;3.63;;;2.50;;
3597;SDS011;1813;52.016;8.714;2022-08-19T12:53:57;2.57;;;2.40;;
3597;SDS011;1813;52.016;8.714;2022-08-19T12:56:30;2.70;;;2.50;;
3597;SDS011;1813;52.016;8.714;2022-08-19T12:59:03;2.90;;;2.70;;
3597;SDS011;1813;52.016;8.714;2022-08-19T13:01:37;2.50;;;2.30;;
3597;SDS011;1813;52.016;8.714;2022-08-19T13:04:08;2.70;;;2.60;;
3597;SDS011;1813;52.016;8.714;2022-08-19T13:06:40;3.07;;;2.30;;
3597;SDS011;1813;52.016;8.714;2022-08-19T13:09:12;7.83;;;2.40;;
3597;SDS011;1813;52.016;8.714;2022-08-19T13:11:45;2.53;;;2.33;;
3597;SDS011;1813;52.016;8.714;2022-08-19T13:14:17;2.50;;;2.30;;
3597;SDS011;1813;52.016;8.714;2022-08-19T13:16:49;2.60;;;2.40;;
3597;SDS011;1813;52.016;8.714;2022-08-19T13:19:21;2.43;;;2.33;;
3597;SDS011;1813;52.016;8.714;2022-08-19T13:21:53;2.90;;;2.30;;
3597;SDS011;1813;52.016;8.714;2022-08-19T13:24:25;5.23;;;2.20;;
3597;SDS011;1813;52.016;8.714;2022-08-19T13:26:59;2.70;;;2.50;;
3597;SDS011;1813;52.016;8.714;2022-08-19T13:29:31;5.73;;;2.20;;
3597;SDS011;1813;52.016;8.714;2022-08-19T13:32:19;2.50;;;2.40;;
3597;SDS011;1813;52.016;8.714;2022-08-19T13:35:08;2.60;;;2.40;;
3597;SDS011;1813;52.016;8.714;2022-08-19T13:37:40;8.90;;;2.40;;
3597;SDS011;1813;52.016;8.714;2022-08-19T13:40:13;6.07;;;2.60;;
3597;SDS011;1813;52.016;8.714;2022-08-19T13:42:53;2.83;;;2.50;;
3597;SDS011;1813;52.016;8.714;2022-08-19T13:45:26;2.33;;;2.10;;
3597;SDS011;1813;52.016;8.714;2022-08-19T13:48:00;3.10;;;2.30;;
3597;SDS011;1813;52.016;8.714;2022-08-19T13:50:38;2.90;;;2.70;;
3597;SDS011;1813;52.016;8.714;2022-08-19T13:53:12;2.73;;;2.53;;
3597;SDS011;1813;52.016;8.714;2022-08-19T13:55:44;3.00;;;2.70;;
3597;SDS011;1813;52.016;8.714;2022-08-19T13:58:18;2.70;;;2.60;;
3597;SDS011;1813;52.016;8.714;2022-08-19T14:00:49;2.60;;;2.50;;
3597;SDS011;1813;52.016;8.714;2022-08-19T14:03:21;4.20;;;2.57;;
3597;SDS011;1813;52.016;8.714;2022-08-19T14:05:53;3.03;;;2.60;;
3597;SDS011;1813;52.016;8.714;2022-08-19T14:08:25;4.17;;;2.60;;
3597;SDS011;1813;52.016;8.714;2022-08-19T14:10:58;2.70;;;2.60;;
3597;SDS011;1813;52.016;8.714;2022-08-19T14:13:31;2.80;;;2.70;;
3597;SDS011;1813;52.016;8.714;2022-08-19T14:16:06;5.83;;;2.83;;
3597;SDS011;1813;52.016;8.714;2022-08-19T14:18:39;8.33;;;2.60;;
3597;SDS011;1813;52.016;8.714;2022-08-19T14:21:15;2.80;;;2.60;;
3597;SDS011;1813;52.016;8.714;2022-08-19T14:23:48;6.70;;;2.50;;
3597;SDS011;1813;52.016;8.714;2022-08-19T14:26:20;3.10;;;2.83;;
3597;SDS011;1813;52.016;8.714;2022-08-19T14:28:56;2.90;;;2.80;;
3597;SDS011;1813;52.016;8.714;2022-08-19T14:31:28;3.33;;;2.50;;
3597;SDS011;1813;52.016;8.714;2022-08-19T14:33:59;2.60;;;2.40;;
3597;SDS011;1813;52.016;8.714;2022-08-19T14:36:31;3.93;;;2.40;;
3597;SDS011;1813;52.016;8.714;2022-08-19T14:39:04;4.67;;;2.63;;
3597;SDS011;1813;52.016;8.714;2022-08-19T14:41:36;2.63;;;2.43;;
3597;SDS011;1813;52.016;8.714;2022-08-19T14:44:13;2.70;;;2.60;;
3597;SDS011;1813;52.016;8.714;2022-08-19T14:46:44;2.70;;;2.50;;
3597;SDS011;1813;52.016;8.714;2022-08-19T14:49:17;11.87;;;2.83;;
3597;SDS011;1813;52.016;8.714;2022-08-19T14:51:49;11.03;;;2.77;;
3597;SDS011;1813;52.016;8.714;2022-08-19T14:54:21;6.20;;;2.77;;
3597;SDS011;1813;52.016;8.714;2022-08-19T14:56:53;2.70;;;2.50;;
3597;SDS011;1813;52.016;8.714;2022-08-19T14:59:26;6.73;;;2.67;;
3597;SDS011;1813;52.016;8.714;2022-08-19T15:01:58;2.73;;;2.53;;
3597;SDS011;1813;52.016;8.714;2022-08-19T15:04:30;4.03;;;2.63;;
3597;SDS011;1813;52.016;8.714;2022-08-19T15:07:02;2.67;;;2.47;;
3597;SDS011;1813;52.016;8.714;2022-08-19T15:09:35;3.30;;;2.53;;
3597;SDS011;1813;52.016;8.714;2022-08-19T15:12:07;2.87;;;2.67;;
3597;SDS011;1813;52.016;8.714;2022-08-19T15:14:41;2.70;;;2.60;;
3597;SDS011;1813;52.016;8.714;2022-08-19T15:17:14;8.00;;;2.50;;
3597;SDS011;1813;52.016;8.714;2022-08-19T15:19:46;2.40;;;2.30;;
3597;SDS011;1813;52.016;8.714;2022-08-19T15:22:18;5.37;;;2.50;;
3597;SDS011;1813;52.016;8.714;2022-08-19T15:24:49;7.80;;;2.40;;
3597;SDS011;1813;52.016;8.714;2022-08-19T15:27:21;4.20;;;2.70;;
3597;SDS011;1813;52.016;8.714;2022-08-19T15:29:54;2.60;;;2.40;;
3597;SDS011;1813;52.016;8.714;2022-08-19T15:32:27;3.77;;;2.70;;
3597;SDS011;1813;52.016;8.714;2022-08-19T15:34:59;13.17;;;2.90;;
3597;SDS011;1813;52.016;8.714;2022-08-19T15:37:31;3.30;;;2.83;;
3597;SDS011;1813;52.016;8.714;2022-08-19T15:40:03;10.83;;;2.80;;
3597;SDS011;1813;52.016;8.714;2022-08-19T15:42:38;6.93;;;3.17;;